Luverne, MN (56156)

4:42 PM CST on February 22, 2017 (GMT -0600)
| | Change Station
Active Advisory: Blizzard Watch

Elev -9999 ft 0.00 °N, 0.00 °E | Updated

Clear
Clear
°F
Feels Like °F
N
Wind Variable Wind from North
Gusts mph

Today
High -- | Low -- °F
--% Chance of Precip.
Yesterday
High -- | Low -- °F
Precip. -- in
Pressure 29.67 in
Visibility 10.0 miles
Clouds Clear
Dew Point Not available.
Humidity Not available.
Rainfall --
Snow Depth Not available.
7:12 AM 6:04 PM
Waning Crescent, 14% visible
METAR KLYV 222238Z AUTO 32015G21KT 10SM CLR 11/05 A2967 RMK AO2
Pressure 29.67 in
Visibility 10.0 miles
Clouds Clear
Dew Point Not available.
Humidity Not available.
Rainfall --
Snow Depth Not available.
7:12 AM 6:04 PM
Waning Crescent, 14% visible
METAR KLYV 222238Z AUTO 32015G21KT 10SM CLR 11/05 A2967 RMK AO2

Get Your Daily Forecast Email!

Thanks for signing up!

Be on the lookout for a verification email in your inbox.

You'll start receiving the daily forecast at 8 AM.

×

10-Day Weather Forecast

Almanac

Astronomy

Feb. 22, 2017 Rise Set
Actual Time
Civil Twilight
Nautical Twilight
Astronomical Twilight
Moon
Length of Visible Light
Length of Day
Tomorrow will be .
, % of the Moon is Illuminated

Today's Extremes

State Highs State Lows

Community

WunderPhotos

Upload Photos

1,962,540 photos uploaded!

WunderBlog® & News

Nearby

Air Quality

  Air Quality AQ Index Pollutant
Not available.

Snow Depth

Station Depth Elevation

Earthquake Activity

City Distance Mag. Time & Date
Minimum magnitude displayed is 2.5.

Coastal Water Temperatures

Place Temperature

Stations

Nearby Weather Stations

Station Location Temp. Windchill Dew Point Humidity Wind Precip. Elev Updated Type
                   

Watches & Warnings

Blizzard Watch
Issued: 3:22 PM CST Feb. 22, 2017 – National Weather Service

... Blizzard watch in effect from Thursday evening through Friday
evening...
... Winter Storm Watch is cancelled...

The National Weather Service in Sioux Falls has issued a blizzard
watch, which is in effect from Thursday evening through Friday
evening. The Winter Storm Watch has been cancelled.

* Timing... a brief mix of rain and snow Thursday afternoon will
change to all snow by early Thursday evening. Snow will
continue heavy at times Thursday night and Friday, before
gradually tapering off Friday night.

* Accumulations... storm total snow accumulations of 6 to 12
inches are likely, with amounts in excess of 12 inches
possible.

* Wind and visibility... winds will increase from the north around
25 to 35 mph Thursday night, with gusts over 45 mph possible on
Friday into Friday evening. Visibility is expected to be reduced
to less than a quarter of a mile at times while snow is falling.


Precautionary/preparedness actions...

A blizzard watch means there is a potential for falling and/or
blowing snow with strong winds and extremely poor visibilities.
This can lead to whiteout conditions and make travel very
dangerous.